Old Crow Airport
CYOC : now visible

Airfield :











YOU CAN JOIN US ON...

 
LOGIN :

Register | Disclaimer

   EN    FR    IT 

 









Legend :    VFR   Marginal VFR   IFR   Intensive IFR   Very Intensive IFR
Visi :
Ceiling :
>= 8 km
>= 3000ft
5 to 8 km
1000 to 3000 ft
1500m to 5 km
500 to 1000 ft
800 to 1500m
200 to 500 ft
< 800m
< 200 ft
Symbols :   Thunderstorms  Fog  Heavy snow  Heavy precipitations  Wind > 20 kt






- Airport Elevation : 824 ft
- IATA code : YOC


CYOC - Old Crow

CURRENT METAR :
  • 251800Z 15002KT 35SM FEW018 FEW040 16/02 A2959 RMK CU1SC1 CU TR SC TR SLP029 DENSITY ALT 1500FT

EXPIRED METARs :
  • 251700Z VRB02KT 35SM FEW018 FEW039 15/02 A2959 RMK SF1SC1 SF TR SC TR SLP030 DENSITY ALT 1400FT
  • 251600Z VRB02KT 35SM FEW016 FEW039 FEW096 13/02 A2959 RMK CU1SC1AC1 CU TR SC TR AC TR SLP028 DENSITY ALT 1200FT

TAF TAF CYOC
Valid from the 25 at 15:00 until the 26 at 01:00 UTC


251438Z 2515/2601 06005KT P6SM FEW015
FM251800 06005KT P6SM SCT080 RMK NXT FCST BY 251900Z
CZEG FIR / North America



MET'MAP, your aeronautical weather chart ! - Copyright ORBIFLY December 2007 - Disclaimer

ORBIFLY MET'MAP TEAM :

Programming & Development : Alexandra Zaïnal
Concept & original design : Baudouin d'Aumeries
Assistance for programming : Marc-Olivier Méhu
Technical & hardware support : Manuel Goepfert

Contact : metmap@orbifly.com




SOURCES & CREDITS :

   NOAA       Earth
Advisory